sensor_id;sensor_type;location;lat;lon;timestamp;pressure;altitude;pressure_sealevel;temperature;humidity
17362;BME280;8798;51.938;4.348;2023-04-16T00:01:15;102089.84;;;10.58;65.96
17362;BME280;8798;51.938;4.348;2023-04-16T00:03:43;102081.09;;;10.56;65.25
17362;BME280;8798;51.938;4.348;2023-04-16T00:06:11;102109.41;;;10.60;65.79
17362;BME280;8798;51.938;4.348;2023-04-16T00:08:39;102098.91;;;10.57;65.85
17362;BME280;8798;51.938;4.348;2023-04-16T00:11:09;102074.34;;;10.50;65.97
17362;BME280;8798;51.938;4.348;2023-04-16T00:13:36;102054.19;;;10.45;65.92
17362;BME280;8798;51.938;4.348;2023-04-16T00:16:06;102044.53;;;10.42;66.31
17362;BME280;8798;51.938;4.348;2023-04-16T00:18:34;102061.50;;;10.43;66.19
17362;BME280;8798;51.938;4.348;2023-04-16T00:21:02;102079.97;;;10.47;66.29
17362;BME280;8798;51.938;4.348;2023-04-16T00:23:30;102071.31;;;10.44;66.32
17362;BME280;8798;51.938;4.348;2023-04-16T00:25:58;102063.47;;;10.41;66.69
17362;BME280;8798;51.938;4.348;2023-04-16T00:28:26;102080.31;;;10.43;66.58
17362;BME280;8798;51.938;4.348;2023-04-16T00:30:54;102067.13;;;10.40;66.76
17362;BME280;8798;51.938;4.348;2023-04-16T00:33:23;102073.50;;;10.39;66.73
17362;BME280;8798;51.938;4.348;2023-04-16T00:35:51;102068.97;;;10.39;66.54
17362;BME280;8798;51.938;4.348;2023-04-16T00:38:19;102085.84;;;10.41;66.58
17362;BME280;8798;51.938;4.348;2023-04-16T00:40:47;102103.53;;;10.44;66.77
17362;BME280;8798;51.938;4.348;2023-04-16T00:43:20;102095.69;;;10.41;67.03
17362;BME280;8798;51.938;4.348;2023-04-16T00:45:48;102117.69;;;10.46;66.77
17362;BME280;8798;51.938;4.348;2023-04-16T00:48:16;102125.63;;;10.47;66.96
17362;BME280;8798;51.938;4.348;2023-04-16T00:50:46;102134.53;;;10.48;67.10
17362;BME280;8798;51.938;4.348;2023-04-16T00:53:14;102119.66;;;10.44;67.09
17362;BME280;8798;51.938;4.348;2023-04-16T00:55:43;102111.81;;;10.41;67.26
17362;BME280;8798;51.938;4.348;2023-04-16T00:58:11;102101.31;;;10.38;67.36
17362;BME280;8798;51.938;4.348;2023-04-16T01:00:39;102133.78;;;10.46;67.25
17362;BME280;8798;51.938;4.348;2023-04-16T01:03:07;102148.84;;;10.48;67.49
17362;BME280;8798;51.938;4.348;2023-04-16T01:05:36;102159.59;;;10.48;67.57
17362;BME280;8798;51.938;4.348;2023-04-16T01:08:05;102172.78;;;10.51;67.20
17362;BME280;8798;51.938;4.348;2023-04-16T01:10:33;102169.25;;;10.51;67.25
17362;BME280;8798;51.938;4.348;2023-04-16T01:13:01;102134.28;;;10.40;67.08
17362;BME280;8798;51.938;4.348;2023-04-16T01:15:28;102120.13;;;10.38;67.56
17362;BME280;8798;51.938;4.348;2023-04-16T01:17:56;102126.34;;;10.38;67.28
17362;BME280;8798;51.938;4.348;2023-04-16T01:20:24;102128.16;;;10.38;67.55
17362;BME280;8798;51.938;4.348;2023-04-16T01:22:53;102151.16;;;10.42;67.70
17362;BME280;8798;51.938;4.348;2023-04-16T01:25:21;102174.84;;;10.48;67.64
17362;BME280;8798;51.938;4.348;2023-04-16T01:27:49;102180.94;;;10.50;67.61
17362;BME280;8798;51.938;4.348;2023-04-16T01:30:20;102164.34;;;10.45;67.59
17362;BME280;8798;51.938;4.348;2023-04-16T01:32:48;102162.63;;;10.44;67.84
17362;BME280;8798;51.938;4.348;2023-04-16T01:35:16;102196.22;;;10.49;67.91
17362;BME280;8798;51.938;4.348;2023-04-16T01:37:44;102203.19;;;10.52;67.62
17362;BME280;8798;51.938;4.348;2023-04-16T01:40:13;102184.72;;;10.47;68.05
17362;BME280;8798;51.938;4.348;2023-04-16T01:42:41;102171.66;;;10.43;68.09
17362;BME280;8798;51.938;4.348;2023-04-16T01:45:09;102174.34;;;10.43;67.73
17362;BME280;8798;51.938;4.348;2023-04-16T01:47:37;102196.31;;;10.48;67.78
17362;BME280;8798;51.938;4.348;2023-04-16T01:50:06;102214.19;;;10.49;68.02
17362;BME280;8798;51.938;4.348;2023-04-16T01:52:34;102223.69;;;10.53;68.20
17362;BME280;8798;51.938;4.348;2023-04-16T01:55:02;102218.47;;;10.51;67.90
17362;BME280;8798;51.938;4.348;2023-04-16T01:57:32;102209.75;;;10.48;67.88
17362;BME280;8798;51.938;4.348;2023-04-16T01:59:59;102209.91;;;10.46;68.14
17362;BME280;8798;51.938;4.348;2023-04-16T02:02:30;102211.59;;;10.47;68.21
17362;BME280;8798;51.938;4.348;2023-04-16T02:04:59;102212.44;;;10.48;68.57
17362;BME280;8798;51.938;4.348;2023-04-16T02:07:26;102218.69;;;10.48;68.20
17362;BME280;8798;51.938;4.348;2023-04-16T02:09:54;102195.81;;;10.43;68.15
17362;BME280;8798;51.938;4.348;2023-04-16T02:12:23;102167.84;;;10.34;67.86
17362;BME280;8798;51.938;4.348;2023-04-16T02:14:52;102160.16;;;10.29;68.47
17362;BME280;8798;51.938;4.348;2023-04-16T02:17:20;102152.19;;;10.28;68.25
17362;BME280;8798;51.938;4.348;2023-04-16T02:19:48;102150.34;;;10.28;68.42
17362;BME280;8798;51.938;4.348;2023-04-16T02:22:16;102155.72;;;10.28;68.32
17362;BME280;8798;51.938;4.348;2023-04-16T02:24:43;102163.69;;;10.30;68.16
17362;BME280;8798;51.938;4.348;2023-04-16T02:27:11;102161.19;;;10.27;68.26
17362;BME280;8798;51.938;4.348;2023-04-16T02:29:39;102162.06;;;10.27;68.46
17362;BME280;8798;51.938;4.348;2023-04-16T02:32:08;102168.41;;;10.26;68.57
17362;BME280;8798;51.938;4.348;2023-04-16T02:34:36;102177.22;;;10.28;68.44
17362;BME280;8798;51.938;4.348;2023-04-16T02:37:05;102195.81;;;10.31;68.63
17362;BME280;8798;51.938;4.348;2023-04-16T02:39:33;102209.75;;;10.37;68.47
17362;BME280;8798;51.938;4.348;2023-04-16T02:42:01;102198.50;;;10.31;68.70
17362;BME280;8798;51.938;4.348;2023-04-16T02:44:29;102173.88;;;10.25;68.67
17362;BME280;8798;51.938;4.348;2023-04-16T02:46:56;102189.78;;;10.28;68.61
17362;BME280;8798;51.938;4.348;2023-04-16T02:49:26;102184.53;;;10.26;68.43
17362;BME280;8798;51.938;4.348;2023-04-16T02:51:53;102192.47;;;10.28;68.56
17362;BME280;8798;51.938;4.348;2023-04-16T02:54:21;102195.25;;;10.26;68.68
17362;BME280;8798;51.938;4.348;2023-04-16T02:56:49;102213.72;;;10.31;68.74
17362;BME280;8798;51.938;4.348;2023-04-16T02:59:17;102225.22;;;10.33;68.86
17362;BME280;8798;51.938;4.348;2023-04-16T03:01:45;102220.69;;;10.33;68.96
17362;BME280;8798;51.938;4.348;2023-04-16T03:04:13;102225.34;;;10.31;68.85
17362;BME280;8798;51.938;4.348;2023-04-16T03:06:42;102227.03;;;10.32;68.79
17362;BME280;8798;51.938;4.348;2023-04-16T03:09:10;102214.72;;;10.30;68.69
17362;BME280;8798;51.938;4.348;2023-04-16T03:11:38;102187.41;;;10.23;68.97
17362;BME280;8798;51.938;4.348;2023-04-16T03:14:06;102189.38;;;10.21;69.02
17362;BME280;8798;51.938;4.348;2023-04-16T03:16:33;102182.53;;;10.17;68.80
17362;BME280;8798;51.938;4.348;2023-04-16T03:19:01;102169.22;;;10.16;68.76
17362;BME280;8798;51.938;4.348;2023-04-16T03:21:29;102163.97;;;10.14;68.76
17362;BME280;8798;51.938;4.348;2023-04-16T03:23:59;102169.44;;;10.12;69.15
17362;BME280;8798;51.938;4.348;2023-04-16T03:26:27;102194.97;;;10.18;68.98
17362;BME280;8798;51.938;4.348;2023-04-16T03:28:55;102203.03;;;10.18;68.83
17362;BME280;8798;51.938;4.348;2023-04-16T03:31:23;102183.63;;;10.15;68.94
17362;BME280;8798;51.938;4.348;2023-04-16T03:33:51;102188.97;;;10.15;69.07
17362;BME280;8798;51.938;4.348;2023-04-16T03:36:18;102201.19;;;10.19;68.97
17362;BME280;8798;51.938;4.348;2023-04-16T03:38:46;102222.47;;;10.22;69.17
17362;BME280;8798;51.938;4.348;2023-04-16T03:41:15;102216.34;;;10.20;69.16
17362;BME280;8798;51.938;4.348;2023-04-16T03:43:44;102221.63;;;10.21;69.25
17362;BME280;8798;51.938;4.348;2023-04-16T03:46:12;102221.72;;;10.20;69.32
17362;BME280;8798;51.938;4.348;2023-04-16T03:48:40;102219.97;;;10.19;69.21
17362;BME280;8798;51.938;4.348;2023-04-16T03:51:07;102214.63;;;10.19;69.37
17362;BME280;8798;51.938;4.348;2023-04-16T03:53:35;102215.69;;;10.16;69.50
17362;BME280;8798;51.938;4.348;2023-04-16T03:56:03;102205.19;;;10.13;69.58
17362;BME280;8798;51.938;4.348;2023-04-16T03:58:33;102217.53;;;10.16;69.18
17362;BME280;8798;51.938;4.348;2023-04-16T04:01:01;102217.66;;;10.14;69.46
17362;BME280;8798;51.938;4.348;2023-04-16T04:03:28;102207.28;;;10.09;69.65
17362;BME280;8798;51.938;4.348;2023-04-16T04:05:56;102183.34;;;10.06;69.09
17362;BME280;8798;51.938;4.348;2023-04-16T04:08:24;102190.41;;;10.07;69.54
17362;BME280;8798;51.938;4.348;2023-04-16T04:10:52;102179.91;;;10.04;69.70
17362;BME280;8798;51.938;4.348;2023-04-16T04:13:20;102187.97;;;10.04;69.72
17362;BME280;8798;51.938;4.348;2023-04-16T04:15:49;102190.66;;;10.04;69.59
17362;BME280;8798;51.938;4.348;2023-04-16T04:18:17;102203.00;;;10.07;69.79
17362;BME280;8798;51.938;4.348;2023-04-16T04:20:45;102229.59;;;10.10;69.85
17362;BME280;8798;51.938;4.348;2023-04-16T04:23:13;102210.06;;;10.08;69.81
17362;BME280;8798;51.938;4.348;2023-04-16T04:25:41;102185.63;;;10.00;70.42
17362;BME280;8798;51.938;4.348;2023-04-16T04:28:08;102199.78;;;10.02;69.94
17362;BME280;8798;51.938;4.348;2023-04-16T04:30:36;102190.84;;;10.01;69.56
17362;BME280;8798;51.938;4.348;2023-04-16T04:33:05;102221.03;;;10.05;70.38
17362;BME280;8798;51.938;4.348;2023-04-16T04:35:33;102227.16;;;10.07;70.37
17362;BME280;8798;51.938;4.348;2023-04-16T04:38:01;102243.03;;;10.10;70.12
17362;BME280;8798;51.938;4.348;2023-04-16T04:40:29;102244.84;;;10.09;70.19
17362;BME280;8798;51.938;4.348;2023-04-16T04:42:57;102240.44;;;10.08;70.46
17362;BME280;8798;51.938;4.348;2023-04-16T04:45:25;102255.38;;;10.12;70.51
17362;BME280;8798;51.938;4.348;2023-04-16T04:47:56;102274.91;;;10.15;70.14
17362;BME280;8798;51.938;4.348;2023-04-16T04:50:25;102294.31;;;10.18;70.51
17362;BME280;8798;51.938;4.348;2023-04-16T04:52:53;102302.16;;;10.21;70.52
17362;BME280;8798;51.938;4.348;2023-04-16T04:55:21;102303.13;;;10.20;70.15
17362;BME280;8798;51.938;4.348;2023-04-16T04:57:49;102311.94;;;10.22;70.32
17362;BME280;8798;51.938;4.348;2023-04-16T05:00:17;102326.84;;;10.26;70.79
17362;BME280;8798;51.938;4.348;2023-04-16T05:02:45;102335.75;;;10.27;70.42
17362;BME280;8798;51.938;4.348;2023-04-16T05:05:13;102327.94;;;10.24;70.46
17362;BME280;8798;51.938;4.348;2023-04-16T05:07:43;102322.56;;;10.24;70.83
17362;BME280;8798;51.938;4.348;2023-04-16T05:10:11;102318.28;;;10.21;70.57
17362;BME280;8798;51.938;4.348;2023-04-16T05:12:38;102301.53;;;10.18;70.99
17362;BME280;8798;51.938;4.348;2023-04-16T05:15:07;102298.00;;;10.17;70.99
17362;BME280;8798;51.938;4.348;2023-04-16T05:17:35;102281.38;;;10.12;70.80
17362;BME280;8798;51.938;4.348;2023-04-16T05:20:04;102293.81;;;10.13;70.84
17362;BME280;8798;51.938;4.348;2023-04-16T05:22:32;102305.28;;;10.15;70.93
17362;BME280;8798;51.938;4.348;2023-04-16T05:25:01;102298.22;;;10.14;71.11
17362;BME280;8798;51.938;4.348;2023-04-16T05:27:29;102286.72;;;10.12;71.13
17362;BME280;8798;51.938;4.348;2023-04-16T05:29:57;102275.56;;;10.05;70.98
17362;BME280;8798;51.938;4.348;2023-04-16T05:32:25;102258.72;;;10.03;71.03
17362;BME280;8798;51.938;4.348;2023-04-16T05:34:53;102257.13;;;10.01;70.85
17362;BME280;8798;51.938;4.348;2023-04-16T05:37:21;102254.56;;;9.99;71.36
17362;BME280;8798;51.938;4.348;2023-04-16T05:39:49;102253.69;;;9.99;71.15
17362;BME280;8798;51.938;4.348;2023-04-16T05:42:18;102247.59;;;9.97;71.45
17362;BME280;8798;51.938;4.348;2023-04-16T05:44:46;102256.50;;;9.97;71.62
17362;BME280;8798;51.938;4.348;2023-04-16T05:47:14;102261.75;;;9.99;71.31
17362;BME280;8798;51.938;4.348;2023-04-16T05:49:42;102275.06;;;10.00;71.44
17362;BME280;8798;51.938;4.348;2023-04-16T05:52:10;102277.66;;;10.02;71.51
17362;BME280;8798;51.938;4.348;2023-04-16T05:54:38;102296.31;;;10.03;71.47
17362;BME280;8798;51.938;4.348;2023-04-16T05:57:06;102297.16;;;10.04;71.38
17362;BME280;8798;51.938;4.348;2023-04-16T05:59:35;102312.94;;;10.08;71.67
17362;BME280;8798;51.938;4.348;2023-04-16T06:02:03;102291.78;;;10.04;71.60
17362;BME280;8798;51.938;4.348;2023-04-16T06:04:31;102305.09;;;10.05;71.69
17362;BME280;8798;51.938;4.348;2023-04-16T06:06:59;102306.94;;;10.05;71.61
17362;BME280;8798;51.938;4.348;2023-04-16T06:09:26;102312.22;;;10.06;71.51
17362;BME280;8798;51.938;4.348;2023-04-16T06:11:54;102322.81;;;10.08;71.69
17362;BME280;8798;51.938;4.348;2023-04-16T06:14:23;102337.00;;;10.10;71.40
17362;BME280;8798;51.938;4.348;2023-04-16T06:16:53;102336.00;;;10.11;71.69
17362;BME280;8798;51.938;4.348;2023-04-16T06:19:21;102359.84;;;10.16;72.10
17362;BME280;8798;51.938;4.348;2023-04-16T06:21:49;102379.16;;;10.21;72.22
17362;BME280;8798;51.938;4.348;2023-04-16T06:24:17;102390.78;;;10.21;71.71
17362;BME280;8798;51.938;4.348;2023-04-16T06:26:45;102381.00;;;10.20;71.99
17362;BME280;8798;51.938;4.348;2023-04-16T06:29:13;102386.28;;;10.22;72.04
17362;BME280;8798;51.938;4.348;2023-04-16T06:31:41;102388.97;;;10.22;72.23
17362;BME280;8798;51.938;4.348;2023-04-16T06:34:10;102407.63;;;10.23;72.18
17362;BME280;8798;51.938;4.348;2023-04-16T06:36:38;102426.22;;;10.26;72.13
17362;BME280;8798;51.938;4.348;2023-04-16T06:39:06;102428.72;;;10.29;72.17
17362;BME280;8798;51.938;4.348;2023-04-16T06:41:34;102437.63;;;10.30;72.08
17362;BME280;8798;51.938;4.348;2023-04-16T06:44:02;102440.31;;;10.30;72.44
17362;BME280;8798;51.938;4.348;2023-04-16T06:46:30;102431.41;;;10.29;72.46
17362;BME280;8798;51.938;4.348;2023-04-16T06:48:58;102434.09;;;10.29;72.24
17362;BME280;8798;51.938;4.348;2023-04-16T06:51:27;102434.09;;;10.29;72.68
17362;BME280;8798;51.938;4.348;2023-04-16T06:53:55;102441.28;;;10.29;72.30
17362;BME280;8798;51.938;4.348;2023-04-16T06:56:23;102427.06;;;10.27;72.23
17362;BME280;8798;51.938;4.348;2023-04-16T06:58:51;102414.72;;;10.24;72.54
17362;BME280;8798;51.938;4.348;2023-04-16T07:01:19;102406.91;;;10.21;72.63
17362;BME280;8798;51.938;4.348;2023-04-16T07:03:47;102398.94;;;10.20;72.77
17362;BME280;8798;51.938;4.348;2023-04-16T07:06:15;102399.91;;;10.19;72.86
17362;BME280;8798;51.938;4.348;2023-04-16T07:08:44;102375.22;;;10.13;72.74
17362;BME280;8798;51.938;4.348;2023-04-16T07:11:12;102385.09;;;10.13;73.34
17362;BME280;8798;51.938;4.348;2023-04-16T07:13:40;102375.22;;;10.13;72.45
17362;BME280;8798;51.938;4.348;2023-04-16T07:16:08;102393.06;;;10.15;72.96
17362;BME280;8798;51.938;4.348;2023-04-16T07:18:36;102411.53;;;10.19;72.82
17362;BME280;8798;51.938;4.348;2023-04-16T07:21:04;102424.72;;;10.22;72.85
17362;BME280;8798;51.938;4.348;2023-04-16T07:23:32;102459.13;;;10.30;72.84
17362;BME280;8798;51.938;4.348;2023-04-16T07:26:01;102462.66;;;10.30;73.00
17362;BME280;8798;51.938;4.348;2023-04-16T07:28:29;102453.75;;;10.30;73.20
17362;BME280;8798;51.938;4.348;2023-04-16T07:30:56;102461.91;;;10.28;73.09
17362;BME280;8798;51.938;4.348;2023-04-16T07:33:25;102461.81;;;10.30;73.10
17362;BME280;8798;51.938;4.348;2023-04-16T07:35:52;102463.50;;;10.31;73.57
17362;BME280;8798;51.938;4.348;2023-04-16T07:38:20;102469.75;;;10.31;73.32
17362;BME280;8798;51.938;4.348;2023-04-16T07:40:48;102475.13;;;10.31;73.15
17362;BME280;8798;51.938;4.348;2023-04-16T07:43:17;102505.97;;;10.39;73.50
17362;BME280;8798;51.938;4.348;2023-04-16T07:45:45;102516.47;;;10.42;73.57
17362;BME280;8798;51.938;4.348;2023-04-16T07:48:13;102523.56;;;10.43;73.51
17362;BME280;8798;51.938;4.348;2023-04-16T07:50:41;102524.31;;;10.45;73.45
17362;BME280;8798;51.938;4.348;2023-04-16T07:53:09;102550.00;;;10.49;73.08
17362;BME280;8798;51.938;4.348;2023-04-16T07:55:37;102563.22;;;10.52;73.67
17362;BME280;8798;51.938;4.348;2023-04-16T07:58:06;102574.72;;;10.54;73.50
17362;BME280;8798;51.938;4.348;2023-04-16T08:00:36;102540.22;;;10.48;73.60
17362;BME280;8798;51.938;4.348;2023-04-16T08:03:04;102536.56;;;10.49;73.77
17362;BME280;8798;51.938;4.348;2023-04-16T08:05:33;102548.06;;;10.51;73.81
17362;BME280;8798;51.938;4.348;2023-04-16T08:08:01;102580.84;;;10.56;73.92
17362;BME280;8798;51.938;4.348;2023-04-16T08:10:28;102582.56;;;10.57;73.69
17362;BME280;8798;51.938;4.348;2023-04-16T08:12:56;102590.38;;;10.60;74.02
17362;BME280;8798;51.938;4.348;2023-04-16T08:15:26;102569.22;;;10.55;74.32
17362;BME280;8798;51.938;4.348;2023-04-16T08:17:56;102580.72;;;10.58;73.79
17362;BME280;8798;51.938;4.348;2023-04-16T08:20:25;102583.41;;;10.58;73.88
17362;BME280;8798;51.938;4.348;2023-04-16T08:22:53;102577.19;;;10.57;73.85
17362;BME280;8798;51.938;4.348;2023-04-16T08:25:21;102582.47;;;10.59;73.96
17362;BME280;8798;51.938;4.348;2023-04-16T08:27:50;102576.31;;;10.57;73.81
17362;BME280;8798;51.938;4.348;2023-04-16T08:30:18;102592.22;;;10.60;74.25
17362;BME280;8798;51.938;4.348;2023-04-16T08:32:47;102604.34;;;10.65;74.36
17362;BME280;8798;51.938;4.348;2023-04-16T08:35:17;102629.09;;;10.70;74.21
17362;BME280;8798;51.938;4.348;2023-04-16T08:37:45;102628.22;;;10.70;74.06
17362;BME280;8798;51.938;4.348;2023-04-16T08:40:13;102626.41;;;10.70;74.02
17362;BME280;8798;51.938;4.348;2023-04-16T08:42:44;102635.22;;;10.72;74.17
17362;BME280;8798;51.938;4.348;2023-04-16T08:45:16;102638.66;;;10.74;74.20
17362;BME280;8798;51.938;4.348;2023-04-16T08:47:46;102653.50;;;10.80;74.20
17362;BME280;8798;51.938;4.348;2023-04-16T08:50:16;102686.19;;;10.87;74.25
17362;BME280;8798;51.938;4.348;2023-04-16T08:52:49;102704.69;;;10.91;73.95
17362;BME280;8798;51.938;4.348;2023-04-16T08:55:20;102687.88;;;10.88;74.29
17362;BME280;8798;51.938;4.348;2023-04-16T08:57:52;102690.59;;;10.88;74.17
17362;BME280;8798;51.938;4.348;2023-04-16T09:00:22;102709.09;;;10.92;74.10
17362;BME280;8798;51.938;4.348;2023-04-16T09:02:50;102692.94;;;10.92;74.19
17362;BME280;8798;51.938;4.348;2023-04-16T09:05:21;102702.84;;;10.92;73.85
17362;BME280;8798;51.938;4.348;2023-04-16T09:07:51;102709.84;;;10.94;74.08
17362;BME280;8798;51.938;4.348;2023-04-16T09:10:20;102699.22;;;10.93;74.49
17362;BME280;8798;51.938;4.348;2023-04-16T09:12:48;102656.72;;;10.85;73.94
17362;BME280;8798;51.938;4.348;2023-04-16T09:15:19;102643.72;;;10.79;74.26
17362;BME280;8798;51.938;4.348;2023-04-16T09:17:47;102657.78;;;10.83;74.08
17362;BME280;8798;51.938;4.348;2023-04-16T09:20:15;102661.22;;;10.85;74.32
17362;BME280;8798;51.938;4.348;2023-04-16T09:22:44;102692.09;;;10.92;74.29
17362;BME280;8798;51.938;4.348;2023-04-16T09:25:12;102706.19;;;10.95;74.32
17362;BME280;8798;51.938;4.348;2023-04-16T09:27:40;102693.84;;;10.93;74.29
17362;BME280;8798;51.938;4.348;2023-04-16T09:30:19;102669.97;;;10.88;74.13
17362;BME280;8798;51.938;4.348;2023-04-16T09:32:49;102653.06;;;10.86;74.14
17362;BME280;8798;51.938;4.348;2023-04-16T09:35:18;102665.53;;;10.87;74.04
17362;BME280;8798;51.938;4.348;2023-04-16T09:37:55;102672.50;;;10.90;74.20
17362;BME280;8798;51.938;4.348;2023-04-16T09:40:24;102674.25;;;10.91;74.21
17362;BME280;8798;51.938;4.348;2023-04-16T09:42:56;102682.19;;;10.92;74.34
17362;BME280;8798;51.938;4.348;2023-04-16T09:45:24;102689.19;;;10.95;74.26
17362;BME280;8798;51.938;4.348;2023-04-16T09:47:52;102696.31;;;10.96;73.82
17362;BME280;8798;51.938;4.348;2023-04-16T09:50:29;102698.88;;;10.97;74.13
17362;BME280;8798;51.938;4.348;2023-04-16T09:53:00;102693.63;;;10.96;74.01
17362;BME280;8798;51.938;4.348;2023-04-16T09:55:28;102709.53;;;10.99;74.14
17362;BME280;8798;51.938;4.348;2023-04-16T09:58:00;102702.31;;;11.00;74.65
17362;BME280;8798;51.938;4.348;2023-04-16T10:00:28;102715.66;;;11.01;74.04
17362;BME280;8798;51.938;4.348;2023-04-16T10:03:03;102708.53;;;11.00;74.17
17362;BME280;8798;51.938;4.348;2023-04-16T10:05:32;102702.31;;;11.00;74.10
17362;BME280;8798;51.938;4.348;2023-04-16T10:08:02;102697.06;;;10.98;73.83
17362;BME280;8798;51.938;4.348;2023-04-16T10:10:37;102682.09;;;10.94;74.48
17362;BME280;8798;51.938;4.348;2023-04-16T10:13:05;102694.38;;;10.98;74.51
17362;BME280;8798;51.938;4.348;2023-04-16T10:15:33;102706.59;;;11.02;74.43
17362;BME280;8798;51.938;4.348;2023-04-16T10:18:02;102698.75;;;10.99;74.26
17362;BME280;8798;51.938;4.348;2023-04-16T10:20:30;102719.81;;;11.05;74.55
17362;BME280;8798;51.938;4.348;2023-04-16T10:22:58;102713.72;;;11.03;74.06
17362;BME280;8798;51.938;4.348;2023-04-16T10:25:28;102710.91;;;11.05;74.50
17362;BME280;8798;51.938;4.348;2023-04-16T10:27:57;102715.53;;;11.03;74.26
17362;BME280;8798;51.938;4.348;2023-04-16T10:30:26;102734.91;;;11.08;74.17
17362;BME280;8798;51.938;4.348;2023-04-16T10:32:54;102723.28;;;11.07;74.46
17362;BME280;8798;51.938;4.348;2023-04-16T10:35:26;102704.78;;;11.03;74.35
17362;BME280;8798;51.938;4.348;2023-04-16T10:37:55;102686.16;;;11.00;74.10
17362;BME280;8798;51.938;4.348;2023-04-16T10:40:24;102677.47;;;10.96;74.52
17362;BME280;8798;51.938;4.348;2023-04-16T10:42:55;102674.78;;;10.96;74.05
17362;BME280;8798;51.938;4.348;2023-04-16T10:45:29;102673.94;;;10.95;74.27
17362;BME280;8798;51.938;4.348;2023-04-16T10:47:58;102682.72;;;10.97;74.43
17362;BME280;8798;51.938;4.348;2023-04-16T10:50:33;102721.56;;;11.06;74.46
17362;BME280;8798;51.938;4.348;2023-04-16T10:53:21;102724.03;;;11.09;74.64
17362;BME280;8798;51.938;4.348;2023-04-16T10:55:57;102730.16;;;11.11;74.51
17362;BME280;8798;51.938;4.348;2023-04-16T10:58:30;102747.06;;;11.13;73.96
17362;BME280;8798;51.938;4.348;2023-04-16T11:00:58;102759.22;;;11.19;74.11
17362;BME280;8798;51.938;4.348;2023-04-16T11:03:29;102790.00;;;11.28;74.19
17362;BME280;8798;51.938;4.348;2023-04-16T11:06:14;102793.63;;;11.27;74.38
17362;BME280;8798;51.938;4.348;2023-04-16T11:08:43;102763.59;;;11.20;74.08
17362;BME280;8798;51.938;4.348;2023-04-16T11:11:37;102749.31;;;11.19;74.28
17362;BME280;8798;51.938;4.348;2023-04-16T11:14:08;102760.06;;;11.19;74.38
17362;BME280;8798;51.938;4.348;2023-04-16T11:16:39;102789.13;;;11.27;74.15
17362;BME280;8798;51.938;4.348;2023-04-16T11:19:14;102809.38;;;11.33;74.19
17362;BME280;8798;51.938;4.348;2023-04-16T11:21:43;102818.06;;;11.36;74.46
17362;BME280;8798;51.938;4.348;2023-04-16T11:24:11;102862.97;;;11.49;74.17
17362;BME280;8798;51.938;4.348;2023-04-16T11:26:39;102907.00;;;11.60;74.49
17362;BME280;8798;51.938;4.348;2023-04-16T11:29:13;102940.47;;;11.69;74.00
17362;BME280;8798;51.938;4.348;2023-04-16T11:31:41;102941.25;;;11.71;74.35
17362;BME280;8798;51.938;4.348;2023-04-16T11:34:09;102948.38;;;11.72;73.88
17362;BME280;8798;51.938;4.348;2023-04-16T11:36:48;102935.00;;;11.71;73.73
17362;BME280;8798;51.938;4.348;2023-04-16T11:39:16;102938.53;;;11.71;74.24
17362;BME280;8798;51.938;4.348;2023-04-16T11:41:45;102929.63;;;11.71;74.33
17362;BME280;8798;51.938;4.348;2023-04-16T11:44:19;102941.00;;;11.74;74.40
17362;BME280;8798;51.938;4.348;2023-04-16T11:46:47;102946.09;;;11.79;73.74
17362;BME280;8798;51.938;4.348;2023-04-16T11:49:16;102961.06;;;11.83;74.02
17362;BME280;8798;51.938;4.348;2023-04-16T11:51:46;102976.09;;;11.87;73.67
17362;BME280;8798;51.938;4.348;2023-04-16T11:54:17;102979.50;;;11.89;73.79
17362;BME280;8798;51.938;4.348;2023-04-16T11:56:47;102990.94;;;11.93;73.41
17362;BME280;8798;51.938;4.348;2023-04-16T11:59:16;103031.44;;;12.04;74.21
17362;BME280;8798;51.938;4.348;2023-04-16T12:01:48;103089.69;;;12.19;73.91
17362;BME280;8798;51.938;4.348;2023-04-16T12:04:18;103093.97;;;12.22;73.96
17362;BME280;8798;51.938;4.348;2023-04-16T12:07:06;103068.13;;;12.19;73.34
17362;BME280;8798;51.938;4.348;2023-04-16T12:09:34;103050.34;;;12.17;73.62
17362;BME280;8798;51.938;4.348;2023-04-16T12:12:23;103038.78;;;12.15;73.36
17362;BME280;8798;51.938;4.348;2023-04-16T12:14:52;103051.06;;;12.19;73.63
17362;BME280;8798;51.938;4.348;2023-04-16T12:17:24;103037.59;;;12.19;73.69
17362;BME280;8798;51.938;4.348;2023-04-16T12:19:57;103027.03;;;12.16;73.69
17362;BME280;8798;51.938;4.348;2023-04-16T12:22:26;103013.69;;;12.14;73.19
17362;BME280;8798;51.938;4.348;2023-04-16T12:24:57;103025.09;;;12.18;73.70
17362;BME280;8798;51.938;4.348;2023-04-16T12:27:25;103015.31;;;12.17;73.44
17362;BME280;8798;51.938;4.348;2023-04-16T12:30:04;103038.16;;;12.24;73.21
17362;BME280;8798;51.938;4.348;2023-04-16T12:32:34;103046.88;;;12.27;73.17
17362;BME280;8798;51.938;4.348;2023-04-16T12:35:02;103076.84;;;12.36;73.07
17362;BME280;8798;51.938;4.348;2023-04-16T12:37:30;103088.28;;;12.39;73.29
17362;BME280;8798;51.938;4.348;2023-04-16T12:39:58;103061.50;;;12.36;73.54
17362;BME280;8798;51.938;4.348;2023-04-16T12:42:26;103035.88;;;12.31;73.17
17362;BME280;8798;51.938;4.348;2023-04-16T12:45:00;103035.88;;;12.31;73.19
17362;BME280;8798;51.938;4.348;2023-04-16T12:47:29;103004.84;;;12.25;73.16
17362;BME280;8798;51.938;4.348;2023-04-16T12:49:59;102982.53;;;12.23;73.25
17362;BME280;8798;51.938;4.348;2023-04-16T12:52:27;102998.38;;;12.27;72.92
17362;BME280;8798;51.938;4.348;2023-04-16T12:54:55;103006.44;;;12.27;72.98
17362;BME280;8798;51.938;4.348;2023-04-16T12:57:23;102997.28;;;12.30;72.79
17362;BME280;8798;51.938;4.348;2023-04-16T12:59:54;102963.66;;;12.23;73.02
17362;BME280;8798;51.938;4.348;2023-04-16T13:02:23;102934.47;;;12.17;72.97
17362;BME280;8798;51.938;4.348;2023-04-16T13:04:52;102966.25;;;12.24;73.07
17362;BME280;8798;51.938;4.348;2023-04-16T13:07:22;102997.06;;;12.33;72.54
17362;BME280;8798;51.938;4.348;2023-04-16T13:09:52;102995.22;;;12.34;73.05